Time;durP1;ratioP1;P1;durP2;ratioP2;P2;SDS_P1;SDS_P2;PMS_P1;PMS_P2;Temp;Humidity;BMP_temperature;BMP_pressure;BME280_temperature;BME280_humidity;BME280_pressure;Samples;Min_cycle;Max_cycle;Signal;HPM_P1;HPM_P2
2022/05/19 00:00:06;;;;;;;;;;;;;;;;;;348515;28;920;-76
2022/05/19 00:00:17;;;;;;;;;;;;;;;;;;348523;28;929;-75
2022/05/19 00:00:27;;;;;;;;;;;;;;;;;;348406;28;1199;-75
2022/05/19 00:01:01;;;;;;;;;;;;;;;;;;348518;28;1028;-76
2022/05/19 00:01:08;;;;;;;;;;;;;;;;;;348334;28;1242;-76
2022/05/19 00:01:19;;;;;;;;;;;;;;;;;;348578;28;928;-76
2022/05/19 00:01:29;;;;;;;;;;;;;;;;;;348565;28;921;-76
2022/05/19 00:01:40;;;;;;;;;;;;;;;;;;348587;28;988;-75
2022/05/19 00:01:50;;;;;;;;;;;;;;;;;;348606;28;902;-76
2022/05/19 00:02:01;;;;;;;;;;;;;;;;;;348561;28;873;-75
2022/05/19 00:02:12;;;;;;;;;;;;;;;;;;348404;28;929;-75
2022/05/19 00:02:23;;;;;;;;;;;;;;;;;;348489;28;841;-75
2022/05/19 00:02:33;;;;;;;;;;;;;;;;;;348542;28;893;-76
2022/05/19 00:02:43;;;;;;;;;;;;;;;;;;348559;28;975;-76
2022/05/19 00:02:53;;;;;;;;;;;;;;;;;;348558;28;972;-75
2022/05/19 00:03:03;;;;;;;;;;;;;;;;;;348440;28;929;-75
2022/05/19 00:03:14;;;;;;;;;;;;;;;;;;348474;28;977;-75
2022/05/19 00:03:25;;;;;;;;;;;;;;;;;;348600;28;959;-76
2022/05/19 00:03:36;;;;;;;;;;;;;;;;;;348341;28;1040;-76
2022/05/19 00:03:46;;;;;;;;;;;;;;;;;;348521;28;968;-75
2022/05/19 00:03:56;;;;;;;;;;;;;;;;;;348520;28;913;-76
2022/05/19 00:04:07;;;;;;;;;;;;;;;;;;348532;28;976;-76
2022/05/19 00:04:17;;;;;;;;;;;;;;;;;;348503;28;992;-75
2022/05/19 00:04:28;;;;;;;;;;;;;;;;;;348563;28;989;-75
2022/05/19 00:04:38;;;;;;;;;;;;;;;;;;348516;28;921;-76
2022/05/19 00:04:49;;;;;;;;;;;;;;;;;;348609;28;825;-76
2022/05/19 00:04:59;;;;;;;;;;;;;;;;;;348588;28;928;-76
2022/05/19 00:05:10;;;;;;;;;;;;;;;;;;348483;28;1080;-76
2022/05/19 00:05:20;;;;;;;;;;;;;;;;;;348510;28;918;-76
2022/05/19 00:05:31;;;;;;;;;;;;;;;;;;348564;28;948;-75
2022/05/19 00:05:42;;;;;;;;;;;;;;;;;;348574;28;790;-75
2022/05/19 00:05:53;;;;;;;;;;;;;;;;;;348548;28;913;-76
2022/05/19 00:06:05;;;;;;;;;;;;;;;;;;348534;28;928;-76
2022/05/19 00:06:15;;;;;;;;;;;;;;;;;;348551;28;1036;-76
2022/05/19 00:06:25;;;;;;;;;;;;;;;;;;348560;28;830;-76
2022/05/19 00:06:36;;;;;;;;;;;;;;;;;;348534;28;1008;-76
2022/05/19 00:06:46;;;;;;;;;;;;;;;;;;348540;28;859;-76
2022/05/19 00:06:56;;;;;;;;;;;;;;;;;;348594;28;889;-76
2022/05/19 00:07:07;;;;;;;;;;;;;;;;;;348497;28;853;-76
2022/05/19 00:07:17;;;;;;;;;;;;;;;;;;348495;28;801;-76
2022/05/19 00:07:27;;;;;;;;;;;;;;;;;;348150;28;1521;-75
2022/05/19 00:07:38;;;;;;;;;;;;;;;;;;348490;28;1535;-75
2022/05/19 00:07:48;;;;;;;;;;;;;;;;;;348582;28;814;-76
2022/05/19 00:07:58;;;;;;;;;;;;;;;;;;348521;28;1020;-76
2022/05/19 00:08:08;;;;;;;;;;;;;;;;;;348519;28;845;-76
2022/05/19 00:08:18;;;;;;;;;;;;;;;;;;348545;28;917;-76
2022/05/19 00:08:30;;;;;;;;;;;;;;;;;;348548;28;984;-76
2022/05/19 00:08:40;;;;;;;;;;;;;;;;;;348560;28;920;-76
2022/05/19 00:08:50;;;;;;;;;;;;;;;;;;348497;28;917;-75
2022/05/19 00:09:00;;;;;;;;;;;;;;;;;;348576;28;860;-75
2022/05/19 00:09:11;;;;;;;;;;;;;;;;;;348511;28;933;-75
2022/05/19 00:09:22;;;;;;;;;;;;;;;;;;348489;28;912;-76
2022/05/19 00:09:33;;;;;;;;;;;;;;;;;;348520;28;987;-76
2022/05/19 00:09:44;;;;;;;;;;;;;;;;;;348549;28;916;-76
2022/05/19 00:09:54;;;;;;;;;;;;;;;;;;348577;28;991;-76
2022/05/19 00:10:05;;;;;;;;;;;;;;;;;;347807;28;1742;-76
2022/05/19 00:10:15;;;;;;;;;;;;;;;;;;347289;28;1353;-75
2022/05/19 00:10:25;;;;;;;;;;;;;;;;;;347026;28;1489;-76
2022/05/19 00:10:35;;;;;;;;;;;;;;;;;;347868;28;1400;-75
2022/05/19 00:10:46;;;;;;;;;;;;;;;;;;348556;28;980;-76
2022/05/19 00:10:58;;;;;;;;;;;;;;;;;;348538;28;814;-76
2022/05/19 00:11:13;;;;;;;;;;;;;;;;;;348550;28;1002;-76
2022/05/19 00:11:27;;;;;;;;;;;;;;;;;;348512;28;885;-75
2022/05/19 00:11:38;;;;;;;;;;;;;;;;;;348493;28;861;-76
2022/05/19 00:11:48;;;;;;;;;;;;;;;;;;348585;28;921;-76
2022/05/19 00:12:00;;;;;;;;;;;;;;;;;;348598;28;912;-76
2022/05/19 00:12:13;;;;;;;;;;;;;;;;;;348547;28;972;-76
2022/05/19 00:12:24;;;;;;;;;;;;;;;;;;348493;28;1060;-75
2022/05/19 00:12:35;;;;;;;;;;;;;;;;;;348570;28;834;-76
2022/05/19 00:12:45;;;;;;;;;;;;;;;;;;348484;28;1155;-76
2022/05/19 00:12:55;;;;;;;;;;;;;;;;;;348588;28;960;-76
2022/05/19 00:13:05;;;;;;;;;;;;;;;;;;348574;28;782;-75
2022/05/19 00:13:15;;;;;;;;;;;;;;;;;;348508;28;960;-76
2022/05/19 00:13:27;;;;;;;;;;;;;;;;;;348473;28;925;-75
2022/05/19 00:13:37;;;;;;;;;;;;;;;;;;348556;28;971;-76
2022/05/19 00:13:48;;;;;;;;;;;;;;;;;;348506;28;928;-76
2022/05/19 00:13:58;;;;;;;;;;;;;;;;;;348587;28;913;-75
2022/05/19 00:14:09;;;;;;;;;;;;;;;;;;348567;28;960;-75
2022/05/19 00:14:19;;;;;;;;;;;;;;;;;;348476;28;1005;-76
2022/05/19 00:14:29;;;;;;;;;;;;;;;;;;348546;28;915;-75
2022/05/19 00:14:40;;;;;;;;;;;;;;;;;;348527;28;996;-76
2022/05/19 00:14:50;;;;;;;;;;;;;;;;;;348516;28;884;-76
2022/05/19 00:15:01;;;;;;;;;;;;;;;;;;348581;28;1003;-75
2022/05/19 00:15:12;;;;;;;;;;;;;;;;;;348496;28;1965;-75
2022/05/19 00:15:22;;;;;;;;;;;;;;;;;;348481;28;872;-76
2022/05/19 00:15:32;;;;;;;;;;;;;;;;;;348491;28;1030;-76
2022/05/19 00:15:43;;;;;;;;;;;;;;;;;;348542;28;956;-75
2022/05/19 00:15:53;;;;;;;;;;;;;;;;;;348514;28;1002;-75
2022/05/19 00:16:05;;;;;;;;;;;;;;;;;;348562;28;975;-76
2022/05/19 00:16:16;;;;;;;;;;;;;;;;;;348593;28;928;-76
2022/05/19 00:16:26;;;;;;;;;;;;;;;;;;348507;28;1000;-76
2022/05/19 00:16:37;;;;;;;;;;;;;;;;;;348533;28;904;-76
2022/05/19 00:16:47;;;;;;;;;;;;;;;;;;348558;28;920;-76
2022/05/19 00:16:58;;;;;;;;;;;;;;;;;;348605;28;841;-76
2022/05/19 00:17:08;;;;;;;;;;;;;;;;;;348575;28;935;-76
2022/05/19 00:17:18;;;;;;;;;;;;;;;;;;348529;28;852;-76
2022/05/19 00:17:28;;;;;;;;;;;;;;;;;;348506;28;964;-76
2022/05/19 00:17:39;;;;;;;;;;;;;;;;;;348497;28;932;-75
2022/05/19 00:17:49;;;;;;;;;;;;;;;;;;348563;28;904;-76
2022/05/19 00:18:00;;;;;;;;;;;;;;;;;;348483;28;924;-76
2022/05/19 00:18:10;;;;;;;;;;;;;;;;;;348557;28;976;-75
2022/05/19 00:18:21;;;;;;;;;;;;;;;;;;348398;28;1160;-77
2022/05/19 00:18:31;;;;;;;;;;;;;;;;;;348556;28;995;-75
2022/05/19 00:18:41;;;;;;;;;;;;;;;;;;348506;28;932;-76
2022/05/19 00:18:52;;;;;;;;;;;;;;;;;;348566;28;814;-76
2022/05/19 00:19:02;;;;;;;;;;;;;;;;;;348567;28;991;-76
2022/05/19 00:19:12;;;;;;;;;;;;;;;;;;348532;28;988;-76
2022/05/19 00:19:23;;;;;;;;;;;;;;;;;;348457;28;827;-76
2022/05/19 00:19:33;;;;;;;;;;;;;;;;;;348528;28;932;-76
2022/05/19 00:19:43;;;;;;;;;;;;;;;;;;348486;28;1039;-76
2022/05/19 00:19:54;;;;;;;;;;;;;;;;;;348524;28;928;-76
2022/05/19 00:20:04;;;;;;;;;;;;;;;;;;348493;28;814;-76
2022/05/19 00:20:14;;;;;;;;;;;;;;;;;;348543;28;1011;-76
2022/05/19 00:20:25;;;;;;;;;;;;;;;;;;348387;28;1156;-76
2022/05/19 00:20:35;;;;;;;;;;;;;;;;;;348557;28;822;-76
2022/05/19 00:20:46;;;;;;;;;;;;;;;;;;348282;28;1101;-76
2022/05/19 00:20:56;;;;;;;;;;;;;;;;;;348585;28;854;-75
2022/05/19 00:21:07;;;;;;;;;;;;;;;;;;348541;28;916;-76
2022/05/19 00:21:17;;;;;;;;;;;;;;;;;;348533;28;980;-76
2022/05/19 00:21:27;;;;;;;;;;;;;;;;;;348453;28;932;-76
2022/05/19 00:21:38;;;;;;;;;;;;;;;;;;348255;28;1126;-76
2022/05/19 00:21:48;;;;;;;;;;;;;;;;;;348567;28;868;-76
2022/05/19 00:21:59;;;;;;;;;;;;;;;;;;348481;28;849;-76
2022/05/19 00:22:09;;;;;;;;;;;;;;;;;;348544;28;975;-76
2022/05/19 00:22:19;;;;;;;;;;;;;;;;;;348547;28;818;-75
2022/05/19 00:22:29;;;;;;;;;;;;;;;;;;348526;28;853;-76
2022/05/19 00:22:39;;;;;;;;;;;;;;;;;;348536;28;964;-75
2022/05/19 00:22:50;;;;;;;;;;;;;;;;;;348569;28;900;-76
2022/05/19 00:23:00;;;;;;;;;;;;;;;;;;348439;28;1037;-76
2022/05/19 00:23:10;;;;;;;;;;;;;;;;;;348577;28;991;-76
2022/05/19 00:23:21;;;;;;;;;;;;;;;;;;348543;28;1069;-76
2022/05/19 00:23:32;;;;;;;;;;;;;;;;;;348505;28;861;-76
2022/05/19 00:23:42;;;;;;;;;;;;;;;;;;348616;28;897;-75
2022/05/19 00:23:52;;;;;;;;;;;;;;;;;;348365;28;901;-76
2022/05/19 00:24:02;;;;;;;;;;;;;;;;;;348496;28;948;-76
2022/05/19 00:24:13;;;;;;;;;;;;;;;;;;348472;28;1082;-76
2022/05/19 00:24:23;;;;;;;;;;;;;;;;;;348371;28;913;-76
2022/05/19 00:24:34;;;;;;;;;;;;;;;;;;348499;28;928;-76
2022/05/19 00:24:44;;;;;;;;;;;;;;;;;;349587;28;1280;-76
2022/05/19 00:24:54;;;;;;;;;;;;;;;;;;349927;28;921;-76
2022/05/19 00:25:05;;;;;;;;;;;;;;;;;;349861;28;971;-76
2022/05/19 00:25:15;;;;;;;;;;;;;;;;;;349926;28;904;-76
2022/05/19 00:25:25;;;;;;;;;;;;;;;;;;349906;28;878;-75
2022/05/19 00:25:35;;;;;;;;;;;;;;;;;;349854;28;900;-76
2022/05/19 00:25:46;;;;;;;;;;;;;;;;;;349909;28;1024;-76
2022/05/19 00:25:56;;;;;;;;;;;;;;;;;;349909;28;889;-75
2022/05/19 00:26:06;;;;;;;;;;;;;;;;;;349849;28;787;-76
2022/05/19 00:26:16;;;;;;;;;;;;;;;;;;349887;28;901;-76
2022/05/19 00:26:26;;;;;;;;;;;;;;;;;;349654;28;1015;-75
2022/05/19 00:26:37;;;;;;;;;;;;;;;;;;349833;28;1004;-76
2022/05/19 00:26:47;;;;;;;;;;;;;;;;;;348483;28;995;-76
2022/05/19 00:26:57;;;;;;;;;;;;;;;;;;348479;28;904;-76
2022/05/19 00:27:08;;;;;;;;;;;;;;;;;;348447;28;936;-76
2022/05/19 00:27:18;;;;;;;;;;;;;;;;;;348452;28;987;-76
2022/05/19 00:27:28;;;;;;;;;;;;;;;;;;348490;28;912;-76
2022/05/19 00:27:38;;;;;;;;;;;;;;;;;;348375;28;987;-76
2022/05/19 00:27:48;;;;;;;;;;;;;;;;;;348485;28;888;-76
2022/05/19 00:27:59;;;;;;;;;;;;;;;;;;348356;28;1004;-76
2022/05/19 00:28:09;;;;;;;;;;;;;;;;;;348428;28;920;-76
2022/05/19 00:28:19;;;;;;;;;;;;;;;;;;348478;28;940;-76
2022/05/19 00:28:30;;;;;;;;;;;;;;;;;;348475;28;912;-76
2022/05/19 00:28:40;;;;;;;;;;;;;;;;;;348646;28;936;-75
2022/05/19 00:28:50;;;;;;;;;;;;;;;;;;349879;28;1000;-76
2022/05/19 00:29:00;;;;;;;;;;;;;;;;;;349927;28;857;-76
2022/05/19 00:29:11;;;;;;;;;;;;;;;;;;349841;28;924;-75
2022/05/19 00:29:21;;;;;;;;;;;;;;;;;;349951;28;834;-75
2022/05/19 00:29:31;;;;;;;;;;;;;;;;;;349900;28;916;-76
2022/05/19 00:29:41;;;;;;;;;;;;;;;;;;349885;28;801;-75
2022/05/19 00:29:51;;;;;;;;;;;;;;;;;;349930;28;980;-76
2022/05/19 00:30:02;;;;;;;;;;;;;;;;;;349922;28;786;-76
2022/05/19 00:30:12;;;;;;;;;;;;;;;;;;349871;28;1024;-75
2022/05/19 00:30:23;;;;;;;;;;;;;;;;;;349871;28;1032;-76
2022/05/19 00:30:34;;;;;;;;;;;;;;;;;;349912;28;987;-75
2022/05/19 00:30:44;;;;;;;;;;;;;;;;;;349844;28;901;-75
2022/05/19 00:30:54;;;;;;;;;;;;;;;;;;349952;28;908;-75
2022/05/19 00:31:04;;;;;;;;;;;;;;;;;;349924;28;908;-75
2022/05/19 00:31:15;;;;;;;;;;;;;;;;;;349945;28;843;-75
2022/05/19 00:31:26;;;;;;;;;;;;;;;;;;349947;28;1004;-76
2022/05/19 00:31:37;;;;;;;;;;;;;;;;;;348285;28;1805;-75
2022/05/19 00:31:47;;;;;;;;;;;;;;;;;;347795;28;1454;-75
2022/05/19 00:31:57;;;;;;;;;;;;;;;;;;348569;28;933;-76
2022/05/19 00:32:07;;;;;;;;;;;;;;;;;;348542;28;865;-76
2022/05/19 00:32:18;;;;;;;;;;;;;;;;;;348463;28;991;-76
2022/05/19 00:32:28;;;;;;;;;;;;;;;;;;348486;28;948;-76
2022/05/19 00:32:38;;;;;;;;;;;;;;;;;;348558;28;988;-76
2022/05/19 00:32:48;;;;;;;;;;;;;;;;;;348501;28;956;-76
2022/05/19 00:32:58;;;;;;;;;;;;;;;;;;348559;28;802;-75
2022/05/19 00:33:09;;;;;;;;;;;;;;;;;;348557;28;836;-76
2022/05/19 00:33:19;;;;;;;;;;;;;;;;;;348495;28;945;-75
2022/05/19 00:33:30;;;;;;;;;;;;;;;;;;348502;28;972;-76
2022/05/19 00:33:40;;;;;;;;;;;;;;;;;;348579;28;849;-76
2022/05/19 00:33:50;;;;;;;;;;;;;;;;;;348500;28;794;-75
2022/05/19 00:34:01;;;;;;;;;;;;;;;;;;348575;28;916;-76
2022/05/19 00:34:12;;;;;;;;;;;;;;;;;;348466;28;869;-75
2022/05/19 00:34:22;;;;;;;;;;;;;;;;;;348488;28;913;-76
2022/05/19 00:34:32;;;;;;;;;;;;;;;;;;348504;28;948;-76
2022/05/19 00:34:43;;;;;;;;;;;;;;;;;;348598;28;885;-75
2022/05/19 00:34:53;;;;;;;;;;;;;;;;;;348497;28;920;-76
2022/05/19 00:35:03;;;;;;;;;;;;;;;;;;348492;28;1004;-75
2022/05/19 00:35:13;;;;;;;;;;;;;;;;;;348467;28;1910;-75
2022/05/19 00:35:24;;;;;;;;;;;;;;;;;;348519;28;925;-76
2022/05/19 00:35:35;;;;;;;;;;;;;;;;;;348569;28;853;-76
2022/05/19 00:35:45;;;;;;;;;;;;;;;;;;348545;28;991;-76
2022/05/19 00:35:55;;;;;;;;;;;;;;;;;;348350;28;922;-75
2022/05/19 00:36:11;;;;;;;;;;;;;;;;;;348541;28;924;-75
2022/05/19 00:36:21;;;;;;;;;;;;;;;;;;348532;28;975;-76
2022/05/19 00:36:32;;;;;;;;;;;;;;;;;;348518;28;988;-76
2022/05/19 00:36:42;;;;;;;;;;;;;;;;;;348485;28;972;-76
2022/05/19 00:36:57;;;;;;;;;;;;;;;;;;348516;28;917;-75
2022/05/19 00:37:07;;;;;;;;;;;;;;;;;;348502;28;1035;-76
2022/05/19 00:37:17;;;;;;;;;;;;;;;;;;348493;28;913;-76
2022/05/19 00:37:28;;;;;;;;;;;;;;;;;;348191;28;1504;-75
2022/05/19 00:37:38;;;;;;;;;;;;;;;;;;348398;28;943;-75
2022/05/19 00:37:48;;;;;;;;;;;;;;;;;;348576;28;779;-76
2022/05/19 00:37:58;;;;;;;;;;;;;;;;;;348464;28;987;-76
2022/05/19 00:38:08;;;;;;;;;;;;;;;;;;348543;28;961;-76
2022/05/19 00:38:19;;;;;;;;;;;;;;;;;;348503;28;830;-76
2022/05/19 00:38:29;;;;;;;;;;;;;;;;;;348499;28;1023;-76
2022/05/19 00:38:39;;;;;;;;;;;;;;;;;;348494;28;914;-76
2022/05/19 00:38:50;;;;;;;;;;;;;;;;;;348527;28;877;-75
2022/05/19 00:39:00;;;;;;;;;;;;;;;;;;348558;28;928;-76
2022/05/19 00:39:12;;;;;;;;;;;;;;;;;;348568;28;975;-75
2022/05/19 00:39:22;;;;;;;;;;;;;;;;;;348447;28;1047;-76
2022/05/19 00:39:33;;;;;;;;;;;;;;;;;;348551;28;849;-76
2022/05/19 00:39:43;;;;;;;;;;;;;;;;;;348535;28;913;-76
2022/05/19 00:39:54;;;;;;;;;;;;;;;;;;348540;28;846;-75
2022/05/19 00:40:04;;;;;;;;;;;;;;;;;;346986;28;1788;-76
2022/05/19 00:40:15;;;;;;;;;;;;;;;;;;347941;28;1208;-76
2022/05/19 00:40:25;;;;;;;;;;;;;;;;;;348288;28;1008;-76
2022/05/19 00:40:36;;;;;;;;;;;;;;;;;;348200;28;1150;-76
2022/05/19 00:40:48;;;;;;;;;;;;;;;;;;348509;28;956;-76
2022/05/19 00:40:58;;;;;;;;;;;;;;;;;;348509;28;792;-75
2022/05/19 00:41:09;;;;;;;;;;;;;;;;;;348526;28;1055;-76
2022/05/19 00:41:19;;;;;;;;;;;;;;;;;;348496;28;945;-76
2022/05/19 00:41:30;;;;;;;;;;;;;;;;;;348479;28;789;-76
2022/05/19 00:41:44;;;;;;;;;;;;;;;;;;348523;28;877;-75
2022/05/19 00:42:51;;;;;;;;;;;;;;;;;;348492;28;988;-76
2022/05/19 00:43:02;;;;;;;;;;;;;;;;;;348472;28;988;-75
2022/05/19 00:43:13;;;;;;;;;;;;;;;;;;347784;28;1721;-75
2022/05/19 00:43:27;;;;;;;;;;;;;;;;;;347127;28;1011;-76
2022/05/19 00:43:40;;;;;;;;;;;;;;;;;;347147;28;949;-76
2022/05/19 00:43:58;;;;;;;;;;;;;;;;;;347191;28;814;-76
2022/05/19 00:44:08;;;;;;;;;;;;;;;;;;347115;28;983;-75
2022/05/19 00:44:20;;;;;;;;;;;;;;;;;;346969;28;1040;-76
2022/05/19 00:44:30;;;;;;;;;;;;;;;;;;347208;28;857;-76
2022/05/19 00:44:41;;;;;;;;;;;;;;;;;;347070;28;849;-75
2022/05/19 00:44:51;;;;;;;;;;;;;;;;;;347138;28;1028;-76
2022/05/19 00:45:02;;;;;;;;;;;;;;;;;;347142;28;810;-76
2022/05/19 00:45:21;;;;;;;;;;;;;;;;;;347143;28;916;-75
2022/05/19 00:45:39;;;;;;;;;;;;;;;;;;347184;28;1015;-76
2022/05/19 00:45:53;;;;;;;;;;;;;;;;;;347180;28;869;-75
2022/05/19 00:46:20;;;;;;;;;;;;;;;;;;347078;28;1020;-76
2022/05/19 00:46:42;;;;;;;;;;;;;;;;;;347166;28;979;-76
2022/05/19 00:46:54;;;;;;;;;;;;;;;;;;347170;28;929;-76
2022/05/19 00:47:05;;;;;;;;;;;;;;;;;;347146;28;996;-76
2022/05/19 00:47:21;;;;;;;;;;;;;;;;;;347089;28;980;-76
2022/05/19 00:47:37;;;;;;;;;;;;;;;;;;347186;28;877;-76
2022/05/19 00:48:02;;;;;;;;;;;;;;;;;;347172;28;877;-75
2022/05/19 00:48:19;;;;;;;;;;;;;;;;;;347135;28;878;-76
2022/05/19 00:48:50;;;;;;;;;;;;;;;;;;347185;28;1887;-76
2022/05/19 00:49:09;;;;;;;;;;;;;;;;;;346627;28;1042;-75
2022/05/19 00:49:19;;;;;;;;;;;;;;;;;;347184;28;913;-76
2022/05/19 00:49:34;;;;;;;;;;;;;;;;;;347160;28;940;-76
2022/05/19 00:49:44;;;;;;;;;;;;;;;;;;347100;28;984;-75
2022/05/19 00:49:55;;;;;;;;;;;;;;;;;;347152;28;928;-76
2022/05/19 00:50:06;;;;;;;;;;;;;;;;;;347126;28;909;-76
2022/05/19 00:50:22;;;;;;;;;;;;;;;;;;347082;28;972;-76
2022/05/19 00:50:45;;;;;;;;;;;;;;;;;;347078;28;1210;-76
2022/05/19 00:50:57;;;;;;;;;;;;;;;;;;347088;28;988;-76
2022/05/19 00:51:09;;;;;;;;;;;;;;;;;;347181;28;825;-75
2022/05/19 00:51:22;;;;;;;;;;;;;;;;;;347124;28;877;-76
2022/05/19 00:51:38;;;;;;;;;;;;;;;;;;347120;28;1076;-76
2022/05/19 00:51:52;;;;;;;;;;;;;;;;;;347137;28;941;-76
2022/05/19 00:52:08;;;;;;;;;;;;;;;;;;347073;28;1000;-76
2022/05/19 00:52:27;;;;;;;;;;;;;;;;;;347159;28;912;-76
2022/05/19 00:52:39;;;;;;;;;;;;;;;;;;347091;28;921;-76
2022/05/19 00:52:51;;;;;;;;;;;;;;;;;;347176;28;925;-76
2022/05/19 00:53:07;;;;;;;;;;;;;;;;;;347062;28;997;-76
2022/05/19 00:53:27;;;;;;;;;;;;;;;;;;346640;28;1750;-76
2022/05/19 00:53:49;;;;;;;;;;;;;;;;;;348552;28;825;-76
2022/05/19 00:53:59;;;;;;;;;;;;;;;;;;348490;28;920;-75
2022/05/19 00:54:12;;;;;;;;;;;;;;;;;;348473;28;869;-76
2022/05/19 00:54:29;;;;;;;;;;;;;;;;;;348523;28;984;-76
2022/05/19 00:54:40;;;;;;;;;;;;;;;;;;348537;28;881;-75
2022/05/19 00:54:55;;;;;;;;;;;;;;;;;;348572;28;965;-76
2022/05/19 00:55:05;;;;;;;;;;;;;;;;;;348425;28;1902;-76
2022/05/19 00:55:21;;;;;;;;;;;;;;;;;;348421;28;944;-76
2022/05/19 00:55:34;;;;;;;;;;;;;;;;;;348565;28;905;-76
2022/05/19 00:55:47;;;;;;;;;;;;;;;;;;348529;28;932;-76
2022/05/19 00:56:01;;;;;;;;;;;;;;;;;;348520;28;991;-75
2022/05/19 00:56:15;;;;;;;;;;;;;;;;;;348512;28;846;-76
2022/05/19 00:56:30;;;;;;;;;;;;;;;;;;348586;28;1000;-76
2022/05/19 00:56:45;;;;;;;;;;;;;;;;;;348513;28;1004;-75
2022/05/19 00:56:59;;;;;;;;;;;;;;;;;;348448;28;988;-76
2022/05/19 00:57:23;;;;;;;;;;;;;;;;;;348432;28;853;-76
2022/05/19 00:57:36;;;;;;;;;;;;;;;;;;348472;28;988;-76
2022/05/19 00:57:52;;;;;;;;;;;;;;;;;;348533;28;1011;-76
2022/05/19 00:58:06;;;;;;;;;;;;;;;;;;348450;28;916;-76
2022/05/19 00:58:21;;;;;;;;;;;;;;;;;;348466;28;1071;-75
2022/05/19 00:58:31;;;;;;;;;;;;;;;;;;348496;28;908;-75
2022/05/19 00:58:46;;;;;;;;;;;;;;;;;;348549;28;999;-75
2022/05/19 00:59:10;;;;;;;;;;;;;;;;;;348463;28;975;-76
2022/05/19 00:59:24;;;;;;;;;;;;;;;;;;348503;28;884;-76
2022/05/19 00:59:43;;;;;;;;;;;;;;;;;;348459;28;856;-76
2022/05/19 01:00:09;;;;;;;;;;;;;;;;;;348549;28;964;-76
2022/05/19 01:00:21;;;;;;;;;;;;;;;;;;348078;28;1765;-75
2022/05/19 01:00:32;;;;;;;;;;;;;;;;;;348355;28;1319;-75
2022/05/19 01:00:43;;;;;;;;;;;;;;;;;;348544;28;861;-75
2022/05/19 01:00:54;;;;;;;;;;;;;;;;;;348474;28;980;-76
2022/05/19 01:01:06;;;;;;;;;;;;;;;;;;348499;28;936;-75
2022/05/19 01:01:17;;;;;;;;;;;;;;;;;;348472;28;928;-76
2022/05/19 01:01:27;;;;;;;;;;;;;;;;;;348452;28;940;-76
2022/05/19 01:01:38;;;;;;;;;;;;;;;;;;348475;28;914;-76
2022/05/19 01:01:49;;;;;;;;;;;;;;;;;;348543;28;984;-76
2022/05/19 01:02:01;;;;;;;;;;;;;;;;;;348486;28;928;-76
2022/05/19 01:02:15;;;;;;;;;;;;;;;;;;348509;28;961;-76
2022/05/19 01:02:28;;;;;;;;;;;;;;;;;;348452;28;947;-76
2022/05/19 01:02:53;;;;;;;;;;;;;;;;;;348497;28;995;-76
2022/05/19 01:03:04;;;;;;;;;;;;;;;;;;348528;28;905;-76
2022/05/19 01:03:15;;;;;;;;;;;;;;;;;;348434;28;1000;-76
2022/05/19 01:03:28;;;;;;;;;;;;;;;;;;348400;28;1024;-75
2022/05/19 01:03:41;;;;;;;;;;;;;;;;;;348530;28;1012;-76
2022/05/19 01:03:57;;;;;;;;;;;;;;;;;;348460;28;976;-75
2022/05/19 01:04:14;;;;;;;;;;;;;;;;;;348508;28;913;-75
2022/05/19 01:04:24;;;;;;;;;;;;;;;;;;348501;28;1007;-76
2022/05/19 01:04:37;;;;;;;;;;;;;;;;;;348542;28;845;-76
2022/05/19 01:05:14;;;;;;;;;;;;;;;;;;348462;28;1027;-75
2022/05/19 01:05:33;;;;;;;;;;;;;;;;;;344603;28;1695;-75
2022/05/19 01:05:48;;;;;;;;;;;;;;;;;;347144;28;767;-75
2022/05/19 01:06:02;;;;;;;;;;;;;;;;;;347157;28;865;-75
2022/05/19 01:06:15;;;;;;;;;;;;;;;;;;347137;28;1052;-76
2022/05/19 01:06:27;;;;;;;;;;;;;;;;;;347076;28;977;-75
2022/05/19 01:06:38;;;;;;;;;;;;;;;;;;347143;28;1008;-75
2022/05/19 01:06:51;;;;;;;;;;;;;;;;;;347130;28;1016;-76
2022/05/19 01:07:02;;;;;;;;;;;;;;;;;;347149;28;949;-76
2022/05/19 01:07:19;;;;;;;;;;;;;;;;;;347121;28;888;-75
2022/05/19 01:07:32;;;;;;;;;;;;;;;;;;347509;28;1497;-75
2022/05/19 01:07:57;;;;;;;;;;;;;;;;;;348399;28;949;-76
2022/05/19 01:08:25;;;;;;;;;;;;;;;;;;348386;28;945;-76
2022/05/19 01:08:39;;;;;;;;;;;;;;;;;;348534;28;925;-75
2022/05/19 01:08:52;;;;;;;;;;;;;;;;;;348550;28;861;-76
2022/05/19 01:09:07;;;;;;;;;;;;;;;;;;348416;28;914;-75
2022/05/19 01:09:17;;;;;;;;;;;;;;;;;;348496;28;1012;-76
2022/05/19 01:09:29;;;;;;;;;;;;;;;;;;347706;28;1765;-75
2022/05/19 01:09:39;;;;;;;;;;;;;;;;;;347512;28;1588;-76
2022/05/19 01:09:50;;;;;;;;;;;;;;;;;;347134;28;957;-75
2022/05/19 01:10:01;;;;;;;;;;;;;;;;;;347102;28;980;-76
2022/05/19 01:10:12;;;;;;;;;;;;;;;;;;347132;28;842;-76
2022/05/19 01:10:23;;;;;;;;;;;;;;;;;;347067;28;1221;-76
2022/05/19 01:10:33;;;;;;;;;;;;;;;;;;347122;28;1057;-76
2022/05/19 01:10:44;;;;;;;;;;;;;;;;;;347096;28;909;-76
2022/05/19 01:10:55;;;;;;;;;;;;;;;;;;347114;28;1012;-76
2022/05/19 01:11:07;;;;;;;;;;;;;;;;;;347095;28;866;-76
2022/05/19 01:11:18;;;;;;;;;;;;;;;;;;347199;28;814;-76
2022/05/19 01:11:28;;;;;;;;;;;;;;;;;;347165;28;841;-76
2022/05/19 01:11:38;;;;;;;;;;;;;;;;;;347106;28;917;-76
2022/05/19 01:11:54;;;;;;;;;;;;;;;;;;347071;28;929;-75
2022/05/19 01:12:06;;;;;;;;;;;;;;;;;;347106;28;1080;-76
2022/05/19 01:12:16;;;;;;;;;;;;;;;;;;347139;28;937;-76
2022/05/19 01:12:28;;;;;;;;;;;;;;;;;;347112;28;854;-76
2022/05/19 01:12:39;;;;;;;;;;;;;;;;;;347113;28;874;-75
2022/05/19 01:12:50;;;;;;;;;;;;;;;;;;347164;28;786;-76
2022/05/19 01:13:01;;;;;;;;;;;;;;;;;;347097;28;949;-76
2022/05/19 01:13:12;;;;;;;;;;;;;;;;;;347119;28;964;-76
2022/05/19 01:13:22;;;;;;;;;;;;;;;;;;347108;28;1023;-76
2022/05/19 01:13:34;;;;;;;;;;;;;;;;;;347165;28;1128;-76
2022/05/19 01:13:44;;;;;;;;;;;;;;;;;;347138;28;944;-75
2022/05/19 01:13:54;;;;;;;;;;;;;;;;;;347093;28;1016;-75
2022/05/19 01:14:08;;;;;;;;;;;;;;;;;;347151;28;917;-76
2022/05/19 01:14:18;;;;;;;;;;;;;;;;;;347146;28;941;-76
2022/05/19 01:14:29;;;;;;;;;;;;;;;;;;347399;28;850;-76
2022/05/19 01:14:39;;;;;;;;;;;;;;;;;;347361;28;953;-75
2022/05/19 01:14:50;;;;;;;;;;;;;;;;;;347349;28;1016;-76
2022/05/19 01:15:01;;;;;;;;;;;;;;;;;;347424;28;913;-76
2022/05/19 01:15:11;;;;;;;;;;;;;;;;;;347296;28;1910;-76
2022/05/19 01:15:22;;;;;;;;;;;;;;;;;;347378;28;1071;-76
2022/05/19 01:15:37;;;;;;;;;;;;;;;;;;347414;28;949;-76
2022/05/19 01:15:49;;;;;;;;;;;;;;;;;;347344;28;1067;-76
2022/05/19 01:15:59;;;;;;;;;;;;;;;;;;347314;28;992;-76
2022/05/19 01:16:10;;;;;;;;;;;;;;;;;;347368;28;816;-76
2022/05/19 01:16:20;;;;;;;;;;;;;;;;;;347359;28;929;-75
2022/05/19 01:16:30;;;;;;;;;;;;;;;;;;347435;28;925;-75
2022/05/19 01:16:41;;;;;;;;;;;;;;;;;;347330;28;1087;-76
2022/05/19 01:16:51;;;;;;;;;;;;;;;;;;347394;28;897;-76
2022/05/19 01:17:02;;;;;;;;;;;;;;;;;;347527;28;1722;-76
2022/05/19 01:17:12;;;;;;;;;;;;;;;;;;348752;28;992;-75
2022/05/19 01:17:23;;;;;;;;;;;;;;;;;;348792;28;921;-75
2022/05/19 01:17:34;;;;;;;;;;;;;;;;;;348651;28;845;-76
2022/05/19 01:17:44;;;;;;;;;;;;;;;;;;348676;28;1072;-76
2022/05/19 01:17:54;;;;;;;;;;;;;;;;;;348770;28;928;-76
2022/05/19 01:18:05;;;;;;;;;;;;;;;;;;348742;28;972;-76
2022/05/19 01:18:16;;;;;;;;;;;;;;;;;;348309;28;1298;-76
2022/05/19 01:18:27;;;;;;;;;;;;;;;;;;348584;28;1153;-75
2022/05/19 01:18:38;;;;;;;;;;;;;;;;;;348782;28;944;-76
2022/05/19 01:18:48;;;;;;;;;;;;;;;;;;348748;28;873;-76
2022/05/19 01:18:59;;;;;;;;;;;;;;;;;;348805;28;901;-76
2022/05/19 01:19:14;;;;;;;;;;;;;;;;;;348800;28;861;-76
2022/05/19 01:19:33;;;;;;;;;;;;;;;;;;348724;28;984;-76
2022/05/19 01:19:48;;;;;;;;;;;;;;;;;;348683;28;1362;-76
2022/05/19 01:20:09;;;;;;;;;;;;;;;;;;348797;28;873;-75
2022/05/19 01:20:24;;;;;;;;;;;;;;;;;;348757;28;1047;-76
2022/05/19 01:20:34;;;;;;;;;;;;;;;;;;348530;28;1023;-76
2022/05/19 01:20:46;;;;;;;;;;;;;;;;;;348752;28;933;-76
2022/05/19 01:20:58;;;;;;;;;;;;;;;;;;348727;28;936;-76
2022/05/19 01:21:10;;;;;;;;;;;;;;;;;;348797;28;976;-75
2022/05/19 01:21:21;;;;;;;;;;;;;;;;;;348733;28;1028;-76
2022/05/19 01:21:32;;;;;;;;;;;;;;;;;;348770;28;782;-75
2022/05/19 01:21:42;;;;;;;;;;;;;;;;;;348723;28;936;-75
2022/05/19 01:21:55;;;;;;;;;;;;;;;;;;348783;28;790;-76
2022/05/19 01:22:11;;;;;;;;;;;;;;;;;;348721;28;975;-76
2022/05/19 01:22:40;;;;;;;;;;;;;;;;;;348651;28;854;-76
2022/05/19 01:23:04;;;;;;;;;;;;;;;;;;348562;28;920;-76
2022/05/19 01:23:32;;;;;;;;;;;;;;;;;;348769;28;972;-75
2022/05/19 01:23:56;;;;;;;;;;;;;;;;;;348798;28;948;-75
2022/05/19 01:24:19;;;;;;;;;;;;;;;;;;348696;28;878;-75
2022/05/19 01:24:33;;;;;;;;;;;;;;;;;;348753;28;967;-76
2022/05/19 01:24:53;;;;;;;;;;;;;;;;;;349514;28;1331;-76
2022/05/19 01:25:22;;;;;;;;;;;;;;;;;;350126;28;1015;-76
2022/05/19 01:25:56;;;;;;;;;;;;;;;;;;350147;28;925;-76
2022/05/19 01:26:22;;;;;;;;;;;;;;;;;;350086;28;983;-76
2022/05/19 01:26:33;;;;;;;;;;;;;;;;;;350127;28;920;-76
2022/05/19 01:26:47;;;;;;;;;;;;;;;;;;350070;28;991;-76
2022/05/19 01:26:58;;;;;;;;;;;;;;;;;;350111;28;841;-76
2022/05/19 01:27:08;;;;;;;;;;;;;;;;;;350126;28;940;-76
2022/05/19 01:27:18;;;;;;;;;;;;;;;;;;350047;28;1028;-76
2022/05/19 01:27:29;;;;;;;;;;;;;;;;;;350111;28;981;-76
2022/05/19 01:27:39;;;;;;;;;;;;;;;;;;350115;28;1122;-76
2022/05/19 01:27:49;;;;;;;;;;;;;;;;;;350125;28;941;-76
2022/05/19 01:28:00;;;;;;;;;;;;;;;;;;350018;28;975;-76
2022/05/19 01:28:10;;;;;;;;;;;;;;;;;;350147;28;944;-76